createdAt,value
2023-10-18T00:00:22.480Z,95.54
2023-10-18T00:05:45.948Z,95.20
2023-10-18T00:10:54.653Z,95.40
2023-10-18T00:16:07.190Z,94.99
2023-10-18T00:21:10.349Z,95.11
2023-10-18T00:26:13.744Z,95.30
2023-10-18T00:31:19.192Z,95.63
2023-10-18T00:36:22.456Z,95.31
2023-10-18T00:41:33.980Z,95.10
2023-10-18T00:46:39.909Z,95.01
2023-10-18T00:51:45.013Z,95.68
2023-10-18T00:56:48.190Z,95.89
2023-10-18T01:01:59.767Z,95.66
2023-10-18T01:07:16.703Z,95.70
2023-10-18T01:12:20.339Z,95.81
2023-10-18T01:17:23.274Z,96.14
2023-10-18T01:22:26.396Z,95.93
2023-10-18T01:27:29.239Z,95.57
2023-10-18T01:32:32.151Z,95.58
2023-10-18T01:37:35.779Z,96.25
2023-10-18T01:42:39.343Z,96.64
2023-10-18T01:47:53.400Z,96.57
2023-10-18T01:52:57.580Z,97.80
2023-10-18T01:58:00.603Z,97.80
2023-10-18T02:03:04.589Z,97.46
2023-10-18T02:08:07.610Z,97.70
2023-10-18T02:13:20.370Z,97.69
2023-10-18T02:18:24.643Z,97.95
2023-10-18T02:23:35.911Z,98.31
2023-10-18T02:28:39.857Z,98.39
2023-10-18T02:33:45.812Z,98.26
2023-10-18T02:38:50.565Z,98.74
2023-10-18T02:43:57.206Z,99.26
2023-10-18T02:49:02.312Z,99.72
2023-10-18T02:54:18.054Z,99.70
2023-10-18T02:59:26.216Z,99.89
2023-10-18T03:04:30.823Z,99.91
2023-10-18T03:09:33.940Z,99.96
2023-10-18T03:14:41.013Z,99.97
2023-10-18T03:19:45.713Z,100.00
2023-10-18T03:24:55.411Z,100.00
2023-10-18T03:30:11.352Z,99.95
2023-10-18T03:35:14.779Z,99.99
2023-10-18T03:40:22.798Z,99.90
2023-10-18T03:45:45.756Z,99.95
2023-10-18T03:50:50.250Z,100.00
2023-10-18T03:55:57.380Z,99.95
2023-10-18T04:01:02.645Z,100.00
2023-10-18T04:06:08.992Z,100.00
2023-10-18T04:11:12.665Z,100.00
2023-10-18T04:16:19.788Z,100.00
2023-10-18T04:21:27.187Z,100.00
2023-10-18T04:26:30.136Z,100.00
2023-10-18T04:31:33.640Z,100.00
2023-10-18T04:36:36.793Z,99.88
2023-10-18T04:41:39.793Z,100.00
2023-10-18T04:46:44.820Z,100.00
2023-10-18T04:51:50.206Z,100.00
2023-10-18T04:56:57.902Z,100.00
2023-10-18T05:02:01.039Z,100.00
2023-10-18T05:07:16.269Z,100.00
2023-10-18T05:12:20.115Z,99.96
2023-10-18T05:17:23.362Z,99.66
2023-10-18T05:22:27.359Z,99.58
2023-10-18T05:27:36.798Z,99.66
2023-10-18T05:32:50.879Z,99.57
2023-10-18T05:38:08.129Z,99.90
2023-10-18T05:43:14.539Z,99.88
2023-10-18T05:48:24.132Z,100.00
2023-10-18T05:53:31.639Z,100.00
2023-10-18T05:58:34.630Z,100.00
2023-10-18T06:03:40.515Z,100.00
2023-10-18T06:08:43.748Z,100.00
2023-10-18T06:13:46.667Z,100.00
2023-10-18T06:18:50.766Z,100.00
2023-10-18T06:23:56.319Z,100.00
2023-10-18T06:29:10.686Z,100.00
2023-10-18T06:34:18.882Z,100.00
2023-10-18T06:39:35.500Z,100.00
2023-10-18T06:44:38.454Z,100.00
2023-10-18T06:49:44.210Z,100.00
2023-10-18T06:54:47.416Z,100.00
2023-10-18T06:59:51.989Z,100.00
2023-10-18T07:04:58.280Z,100.00
2023-10-18T07:10:05.814Z,100.00
2023-10-18T07:15:10.960Z,100.00
2023-10-18T07:20:22.281Z,100.00
2023-10-18T07:25:30.387Z,100.00
2023-10-18T07:30:44.702Z,100.00
2023-10-18T07:35:47.602Z,100.00
2023-10-18T07:40:58.333Z,99.61
2023-10-18T07:46:09.123Z,99.05
2023-10-18T07:51:27.851Z,97.81
2023-10-18T07:56:32.494Z,97.29
2023-10-18T08:01:54.081Z,97.05
2023-10-18T08:06:58.069Z,95.39
2023-10-18T08:12:23.811Z,93.12
2023-10-18T08:17:30.907Z,90.10
2023-10-18T08:22:37.999Z,88.58
2023-10-18T08:27:42.738Z,89.20
2023-10-18T08:32:45.710Z,86.94
2023-10-18T08:37:48.891Z,86.15
2023-10-18T08:42:53.108Z,83.57
2023-10-18T08:47:59.450Z,81.12
2023-10-18T08:53:04.428Z,81.14
2023-10-18T08:58:09.708Z,79.95
2023-10-18T09:03:12.903Z,78.97
2023-10-18T09:08:20.589Z,79.00
2023-10-18T09:13:25.635Z,78.25
2023-10-18T09:18:36.264Z,76.49
2023-10-18T09:23:42.158Z,74.08
2023-10-18T09:28:46.210Z,74.99
2023-10-18T09:33:53.417Z,73.31
2023-10-18T09:38:57.368Z,71.32
2023-10-18T09:44:02.584Z,70.16
2023-10-18T09:49:11.244Z,69.62
2023-10-18T09:54:14.445Z,71.25
2023-10-18T09:59:26.762Z,70.47
2023-10-18T10:04:33.709Z,68.68
2023-10-18T10:09:40.330Z,68.07
2023-10-18T10:14:43.437Z,67.76
2023-10-18T10:19:49.966Z,69.71
2023-10-18T10:25:22.252Z,68.06
2023-10-18T10:30:36.468Z,65.80
2023-10-18T10:35:46.352Z,66.04
2023-10-18T10:40:49.965Z,66.70
2023-10-18T10:45:53.031Z,65.75
2023-10-18T10:51:15.106Z,65.22
2023-10-18T10:56:25.052Z,63.74
2023-10-18T11:01:55.913Z,64.44
2023-10-18T11:07:10.325Z,62.28
2023-10-18T11:12:14.885Z,64.09
2023-10-18T11:17:17.991Z,63.87
2023-10-18T11:22:25.237Z,62.22
2023-10-18T11:27:35.580Z,62.04
2023-10-18T11:32:39.278Z,61.50
2023-10-18T11:37:45.816Z,61.94
2023-10-18T11:43:22.014Z,61.75
2023-10-18T11:48:33.890Z,60.11
2023-10-18T11:53:36.928Z,60.51
2023-10-18T11:58:42.672Z,60.20
2023-10-18T12:03:48.092Z,60.68
2023-10-18T12:09:11.616Z,60.22
2023-10-18T12:14:14.630Z,58.62
2023-10-18T12:19:17.884Z,58.17
2023-10-18T12:24:25.365Z,58.11
2023-10-18T12:29:28.507Z,58.61
2023-10-18T12:34:32.356Z,58.17
2023-10-18T12:39:37.014Z,57.98
2023-10-18T12:44:40.712Z,58.76
2023-10-18T12:49:46.478Z,58.55
2023-10-18T12:54:52.753Z,58.84
2023-10-18T13:00:14.694Z,58.77
2023-10-18T13:05:18.935Z,58.88
2023-10-18T13:10:31.208Z,59.57
2023-10-18T13:15:34.511Z,59.46
2023-10-18T13:20:37.767Z,59.30
2023-10-18T13:25:58.547Z,60.17
2023-10-18T13:31:05.781Z,60.63
2023-10-18T13:36:14.866Z,59.53
2023-10-18T13:41:19.146Z,60.36
2023-10-18T13:46:24.266Z,59.87
2023-10-18T13:51:27.454Z,59.93
2023-10-18T13:56:31.997Z,60.35
2023-10-18T14:01:36.088Z,60.46
2023-10-18T14:06:53.335Z,60.20
2023-10-18T14:11:57.810Z,60.57
2023-10-18T14:17:01.279Z,60.32
2023-10-18T14:22:07.114Z,57.64
2023-10-18T14:27:11.175Z,50.13
2023-10-18T14:32:18.034Z,48.54
2023-10-18T14:37:23.614Z,49.30
2023-10-18T14:42:33.295Z,52.58
2023-10-18T14:47:39.773Z,54.74
2023-10-18T14:52:47.266Z,55.96
2023-10-18T14:57:50.244Z,56.49
2023-10-18T15:02:53.803Z,57.51
2023-10-18T15:07:59.487Z,59.10
2023-10-18T15:13:02.654Z,59.04
2023-10-18T15:18:06.933Z,59.76
2023-10-18T15:23:10.141Z,59.97
2023-10-18T15:28:13.071Z,60.87
2023-10-18T15:33:20.899Z,62.02
2023-10-18T15:38:24.615Z,63.27
2023-10-18T15:43:28.273Z,63.67
2023-10-18T15:48:31.168Z,64.62
2023-10-18T15:53:38.860Z,65.70
2023-10-18T15:58:48.456Z,66.73
2023-10-18T16:03:51.957Z,66.42
2023-10-18T16:08:55.303Z,68.08
2023-10-18T16:13:58.115Z,69.23
2023-10-18T16:19:02.230Z,69.79
2023-10-18T16:24:06.027Z,70.65
2023-10-18T16:29:09.058Z,71.07
2023-10-18T16:34:12.008Z,71.48
2023-10-18T16:39:19.584Z,72.71
2023-10-18T16:44:22.575Z,73.31
2023-10-18T16:49:25.629Z,73.78
2023-10-18T16:54:28.656Z,74.20
2023-10-18T16:59:32.371Z,74.94
2023-10-18T17:04:35.703Z,76.32
2023-10-18T17:09:38.548Z,76.93
2023-10-18T17:14:41.701Z,78.15
2023-10-18T17:19:44.570Z,78.72
2023-10-18T17:24:52.183Z,78.83
2023-10-18T17:29:55.120Z,79.75
2023-10-18T17:34:58.033Z,80.56
2023-10-18T17:40:01.071Z,81.79
2023-10-18T17:45:04.685Z,82.30
2023-10-18T17:50:10.673Z,81.96
2023-10-18T17:55:16.060Z,81.77
2023-10-18T18:00:28.254Z,81.75
2023-10-18T18:05:33.049Z,81.69
2023-10-18T18:10:38.975Z,83.02
2023-10-18T18:15:43.263Z,84.03
2023-10-18T18:20:46.505Z,84.65
2023-10-18T18:25:49.533Z,85.28
2023-10-18T18:30:52.827Z,84.69
2023-10-18T18:35:55.822Z,84.47
2023-10-18T18:40:58.755Z,84.41
2023-10-18T18:46:01.731Z,84.75
2023-10-18T18:51:08.285Z,85.62
2023-10-18T18:56:11.517Z,86.16
2023-10-18T19:01:15.454Z,87.43
2023-10-18T19:06:18.378Z,88.21
2023-10-18T19:11:25.080Z,88.70
2023-10-18T19:16:28.471Z,88.58
2023-10-18T19:21:32.689Z,88.17
2023-10-18T19:26:35.821Z,88.24
2023-10-18T19:31:39.218Z,88.41
2023-10-18T19:36:42.843Z,88.65
2023-10-18T19:41:46.083Z,89.56
2023-10-18T19:46:50.476Z,90.47
2023-10-18T19:51:53.456Z,90.26
2023-10-18T19:56:58.132Z,91.18
2023-10-18T20:02:01.381Z,91.54
2023-10-18T20:07:04.443Z,92.15
2023-10-18T20:12:07.321Z,92.18
2023-10-18T20:17:14.235Z,92.31
2023-10-18T20:22:17.208Z,91.69
2023-10-18T20:27:20.119Z,92.01
2023-10-18T20:32:23.039Z,91.81
2023-10-18T20:37:26.814Z,91.70
2023-10-18T20:42:31.315Z,91.85
2023-10-18T20:47:34.332Z,92.95
2023-10-18T20:52:37.924Z,92.61
2023-10-18T20:57:42.503Z,92.88
2023-10-18T21:02:46.475Z,92.88
2023-10-18T21:07:50.046Z,92.80
2023-10-18T21:12:53.605Z,92.85
2023-10-18T21:17:57.422Z,93.03
2023-10-18T21:23:01.173Z,93.26
2023-10-18T21:28:06.449Z,93.46
2023-10-18T21:33:09.458Z,94.59
2023-10-18T21:38:12.910Z,94.48
2023-10-18T21:43:15.893Z,94.75
2023-10-18T21:48:18.850Z,95.08
2023-10-18T21:53:22.538Z,96.10
2023-10-18T21:58:25.601Z,96.19
2023-10-18T22:03:28.796Z,95.76
2023-10-18T22:08:32.674Z,95.52
2023-10-18T22:13:35.700Z,95.76
2023-10-18T22:18:38.827Z,95.57
2023-10-18T22:23:47.410Z,95.36
2023-10-18T22:28:54.212Z,95.28
2023-10-18T22:33:57.868Z,95.37
2023-10-18T22:39:02.237Z,95.71
2023-10-18T22:44:11.871Z,95.87
2023-10-18T22:49:28.074Z,96.59
2023-10-18T22:54:43.771Z,97.86
2023-10-18T22:59:48.239Z,99.05
2023-10-18T23:04:54.257Z,98.98
2023-10-18T23:09:57.394Z,99.17
2023-10-18T23:15:19.363Z,99.47
2023-10-18T23:20:35.172Z,99.54
2023-10-18T23:25:57.103Z,99.51
2023-10-18T23:31:09.545Z,99.43
2023-10-18T23:36:15.857Z,99.48
2023-10-18T23:41:31.254Z,99.54
2023-10-18T23:46:36.775Z,99.68
2023-10-18T23:51:40.746Z,99.89
2023-10-18T23:56:45.006Z,99.88
